createdAt,value
2022-12-05T00:01:19.687Z,2
2022-12-05T00:03:03.087Z,2
2022-12-05T00:04:46.479Z,1
2022-12-05T00:06:29.860Z,2
2022-12-05T00:08:13.266Z,2
2022-12-05T00:09:56.696Z,2
2022-12-05T00:13:23.149Z,1
2022-12-05T00:15:06.524Z,2
2022-12-05T00:16:49.931Z,1
2022-12-05T00:18:33.324Z,2
2022-12-05T00:20:16.706Z,2
2022-12-05T00:22:00.156Z,1
2022-12-05T00:23:43.520Z,2
2022-12-05T00:25:26.934Z,2
2022-12-05T00:28:53.383Z,2
2022-12-05T00:30:36.791Z,1
2022-12-05T00:32:20.168Z,1
2022-12-05T00:34:03.556Z,2
2022-12-05T00:35:46.979Z,2
2022-12-05T00:37:30.350Z,1
2022-12-05T00:39:13.761Z,2
2022-12-05T00:40:57.145Z,1
2022-12-05T00:42:40.556Z,2
2022-12-05T00:44:24.261Z,2
2022-12-05T00:46:07.691Z,2
2022-12-05T00:47:51.033Z,2
2022-12-05T00:49:34.428Z,1
2022-12-05T00:51:17.826Z,1
2022-12-05T00:53:01.226Z,2
2022-12-05T00:54:44.616Z,2
2022-12-05T00:56:28.026Z,2
2022-12-05T01:01:37.258Z,2
2022-12-05T01:03:20.898Z,1
2022-12-05T01:05:04.055Z,2
2022-12-05T01:06:47.459Z,1
2022-12-05T01:08:30.848Z,2
2022-12-05T01:10:14.242Z,1
2022-12-05T01:11:57.638Z,2
2022-12-05T01:13:41.032Z,2
2022-12-05T01:18:50.273Z,1
2022-12-05T01:20:33.680Z,1
2022-12-05T01:22:17.078Z,2
2022-12-05T01:24:00.470Z,2
2022-12-05T01:25:43.862Z,1
2022-12-05T01:27:27.261Z,2
2022-12-05T01:29:10.649Z,1
2022-12-05T01:30:54.055Z,2
2022-12-05T01:36:03.301Z,2
2022-12-05T01:37:46.695Z,1
2022-12-05T01:39:30.106Z,1
2022-12-05T01:41:13.504Z,2
2022-12-05T01:42:56.892Z,2
2022-12-05T01:44:40.287Z,1
2022-12-05T01:46:23.671Z,2
2022-12-05T01:48:07.073Z,1
2022-12-05T01:53:16.309Z,2
2022-12-05T01:54:59.715Z,1
2022-12-05T01:56:43.111Z,2
2022-12-05T01:58:26.502Z,2
2022-12-05T02:00:09.887Z,2
2022-12-05T02:01:53.293Z,1
2022-12-05T02:03:36.685Z,2
2022-12-05T02:05:20.073Z,2
2022-12-05T02:07:03.467Z,2
2022-12-05T02:10:29.953Z,2
2022-12-05T02:12:13.342Z,1
2022-12-05T02:13:56.751Z,2
2022-12-05T02:15:40.136Z,2
2022-12-05T02:17:23.537Z,1
2022-12-05T02:19:06.924Z,2
2022-12-05T02:20:50.333Z,2
2022-12-05T02:22:33.720Z,1
2022-12-05T02:27:42.953Z,2
2022-12-05T02:29:26.359Z,2
2022-12-05T02:31:09.759Z,2
2022-12-05T02:32:53.162Z,1
2022-12-05T02:34:36.562Z,2
2022-12-05T02:36:19.957Z,2
2022-12-05T02:38:03.343Z,1
2022-12-05T02:39:46.760Z,2
2022-12-05T02:44:55.989Z,2
2022-12-05T02:46:39.385Z,2
2022-12-05T02:48:22.767Z,2
2022-12-05T02:50:06.168Z,1
2022-12-05T02:51:49.565Z,2
2022-12-05T02:53:32.966Z,1
2022-12-05T02:55:16.363Z,2
2022-12-05T02:56:59.761Z,1
2022-12-05T03:02:08.990Z,2
2022-12-05T03:03:52.393Z,1
2022-12-05T03:05:35.799Z,2
2022-12-05T03:07:19.178Z,1
2022-12-05T03:09:02.641Z,1
2022-12-05T03:10:45.975Z,1
2022-12-05T03:12:29.367Z,2
2022-12-05T03:14:12.783Z,2
2022-12-05T03:19:22.027Z,1
2022-12-05T03:21:05.412Z,2
2022-12-05T03:22:48.798Z,2
2022-12-05T03:24:32.200Z,2
2022-12-05T03:26:15.597Z,2
2022-12-05T03:27:59.001Z,1
2022-12-05T03:29:42.400Z,2
2022-12-05T03:31:25.772Z,1
2022-12-05T03:34:52.258Z,1
2022-12-05T03:36:41.560Z,2
2022-12-05T03:38:19.059Z,1
2022-12-05T03:40:02.442Z,2
2022-12-05T03:41:45.844Z,1
2022-12-05T03:43:29.240Z,2
2022-12-05T03:45:12.637Z,2
2022-12-05T03:46:56.024Z,1
2022-12-05T03:48:39.427Z,1
2022-12-05T03:50:23.120Z,2
2022-12-05T03:52:06.529Z,2
2022-12-05T03:53:49.925Z,1
2022-12-05T03:55:33.322Z,1
2022-12-05T03:57:16.705Z,2
2022-12-05T03:59:00.112Z,2
2022-12-05T04:02:26.904Z,2
2022-12-05T04:04:10.309Z,1
2022-12-05T04:09:19.528Z,2
2022-12-05T04:11:02.935Z,1
2022-12-05T04:12:46.342Z,2
2022-12-05T04:14:29.730Z,2
2022-12-05T04:16:13.148Z,2
2022-12-05T04:17:56.518Z,2
2022-12-05T04:19:39.922Z,2
2022-12-05T04:21:23.315Z,2
2022-12-05T04:26:32.566Z,1
2022-12-05T04:28:15.955Z,2
2022-12-05T04:29:59.361Z,2
2022-12-05T04:31:42.746Z,2
2022-12-05T04:33:26.155Z,1
2022-12-05T04:35:09.536Z,1
2022-12-05T04:36:52.943Z,2
2022-12-05T04:38:36.350Z,2
2022-12-05T04:42:02.883Z,2
2022-12-05T04:43:46.214Z,1
2022-12-05T04:45:29.593Z,2
2022-12-05T04:47:13.003Z,1
2022-12-05T04:48:56.393Z,1
2022-12-05T04:50:39.799Z,2
2022-12-05T04:52:23.191Z,2
2022-12-05T04:54:06.582Z,1
2022-12-05T04:57:33.107Z,2
2022-12-05T04:59:16.463Z,1
2022-12-05T05:00:59.859Z,2
2022-12-05T05:02:43.283Z,2
2022-12-05T05:04:26.632Z,1
2022-12-05T05:06:10.037Z,2
2022-12-05T05:07:53.440Z,2
2022-12-05T05:09:36.823Z,2
2022-12-05T05:14:46.083Z,2
2022-12-05T05:16:29.478Z,2
2022-12-05T05:18:12.862Z,2
2022-12-05T05:19:56.267Z,2
2022-12-05T05:21:39.666Z,2
2022-12-05T05:23:23.046Z,2
2022-12-05T05:25:06.445Z,2
2022-12-05T05:26:49.851Z,2
2022-12-05T05:30:16.311Z,1
2022-12-05T05:31:59.712Z,1
2022-12-05T05:33:43.102Z,1
2022-12-05T05:35:26.508Z,2
2022-12-05T05:37:09.926Z,2
2022-12-05T05:38:53.302Z,1
2022-12-05T05:40:36.685Z,2
2022-12-05T05:42:20.099Z,1
2022-12-05T05:45:46.566Z,2
2022-12-05T05:47:29.974Z,2
2022-12-05T05:49:13.356Z,2
2022-12-05T05:50:56.754Z,2
2022-12-05T05:52:40.142Z,2
2022-12-05T05:54:23.557Z,1
2022-12-05T05:56:06.952Z,1
2022-12-05T05:57:50.488Z,2
2022-12-05T06:01:16.816Z,2
2022-12-05T06:03:00.203Z,1
2022-12-05T06:04:43.602Z,1
2022-12-05T06:06:27.192Z,1
2022-12-05T06:08:10.403Z,1
2022-12-05T06:09:53.790Z,1
2022-12-05T06:11:37.246Z,1
2022-12-05T06:13:20.586Z,1
2022-12-05T06:16:47.080Z,2
2022-12-05T06:18:30.463Z,1
2022-12-05T06:20:13.849Z,1
2022-12-05T06:21:57.245Z,2
2022-12-05T06:23:40.644Z,1
2022-12-05T06:25:24.036Z,2
2022-12-05T06:27:07.460Z,1
2022-12-05T06:28:50.829Z,1
2022-12-05T06:30:34.222Z,1
2022-12-05T06:34:00.711Z,1
2022-12-05T06:35:44.091Z,1
2022-12-05T06:37:27.504Z,1
2022-12-05T06:39:10.906Z,1
2022-12-05T06:40:54.288Z,1
2022-12-05T06:42:37.684Z,1
2022-12-05T06:44:21.082Z,1
2022-12-05T06:46:04.477Z,1
2022-12-05T06:47:47.872Z,2
2022-12-05T06:49:31.587Z,1
2022-12-05T06:51:14.964Z,1
2022-12-05T06:52:58.365Z,1
2022-12-05T06:54:41.769Z,1
2022-12-05T06:56:25.166Z,1
2022-12-05T06:58:08.548Z,1
2022-12-05T06:59:51.959Z,1
2022-12-05T07:01:35.333Z,1
2022-12-05T07:03:18.746Z,1
2022-12-05T07:05:02.432Z,0
2022-12-05T07:06:45.851Z,1
2022-12-05T07:08:29.249Z,1
2022-12-05T07:10:12.627Z,1
2022-12-05T07:11:56.035Z,1
2022-12-05T07:13:39.453Z,1
2022-12-05T07:15:22.818Z,1
2022-12-05T07:17:06.219Z,1
2022-12-05T07:18:49.619Z,1
2022-12-05T07:20:33.309Z,1
2022-12-05T07:22:16.720Z,1
2022-12-05T07:24:00.102Z,1
2022-12-05T07:25:43.515Z,1
2022-12-05T07:27:26.913Z,1
2022-12-05T07:29:10.368Z,1
2022-12-05T07:30:53.688Z,2
2022-12-05T07:32:37.084Z,1
2022-12-05T07:37:46.350Z,4
2022-12-05T07:39:29.735Z,4
2022-12-05T07:41:13.128Z,4
2022-12-05T07:42:56.529Z,5
2022-12-05T07:44:39.918Z,5
2022-12-05T07:46:23.320Z,5
2022-12-05T07:48:06.698Z,5
2022-12-05T07:49:50.159Z,7
2022-12-05T07:51:33.814Z,6
2022-12-05T07:53:17.232Z,5
2022-12-05T07:55:00.685Z,5
2022-12-05T07:56:44.038Z,5
2022-12-05T07:58:27.398Z,5
2022-12-05T08:00:10.826Z,5
2022-12-05T08:01:54.210Z,5
2022-12-05T08:03:37.595Z,6
2022-12-05T08:07:04.061Z,10
2022-12-05T08:08:47.454Z,12
2022-12-05T08:10:30.856Z,12
2022-12-05T08:12:14.246Z,14
2022-12-05T08:13:57.649Z,15
2022-12-05T08:17:24.442Z,17
2022-12-05T08:19:07.837Z,16
2022-12-05T08:22:34.321Z,14
2022-12-05T08:24:17.700Z,18
2022-12-05T08:26:01.103Z,26
2022-12-05T08:27:44.493Z,24
2022-12-05T08:29:27.905Z,25
2022-12-05T08:31:11.296Z,27
2022-12-05T08:32:54.690Z,29
2022-12-05T08:34:38.071Z,85
2022-12-05T08:38:04.620Z,97
2022-12-05T08:39:47.984Z,104
2022-12-05T08:41:31.354Z,127
2022-12-05T08:43:14.761Z,149
2022-12-05T08:44:58.170Z,176
2022-12-05T08:46:41.540Z,214
2022-12-05T08:48:24.939Z,242
2022-12-05T08:50:08.343Z,261
2022-12-05T08:55:17.570Z,207
2022-12-05T08:57:00.977Z,179
2022-12-05T08:58:44.361Z,157
2022-12-05T09:00:27.770Z,157
2022-12-05T09:02:11.165Z,162
2022-12-05T09:03:54.547Z,170
2022-12-05T09:05:37.944Z,165
2022-12-05T09:07:21.349Z,162
2022-12-05T09:12:30.597Z,182
2022-12-05T09:14:13.974Z,183
2022-12-05T09:15:57.373Z,177
2022-12-05T09:17:40.764Z,166
2022-12-05T09:19:24.193Z,162
2022-12-05T09:21:07.575Z,162
2022-12-05T09:22:50.978Z,165
2022-12-05T09:24:34.424Z,176
2022-12-05T09:29:43.609Z,181
2022-12-05T09:31:27.011Z,182
2022-12-05T09:33:10.400Z,176
2022-12-05T09:34:53.784Z,179
2022-12-05T09:36:37.190Z,194
2022-12-05T09:38:20.582Z,199
2022-12-05T09:40:03.995Z,194
2022-12-05T09:41:47.409Z,193
2022-12-05T09:46:56.616Z,140
2022-12-05T09:48:40.041Z,125
2022-12-05T09:50:23.422Z,122
2022-12-05T09:52:06.825Z,127
2022-12-05T09:53:50.206Z,129
2022-12-05T09:55:33.599Z,121
2022-12-05T09:57:17.018Z,113
2022-12-05T09:59:00.396Z,103
2022-12-05T10:04:09.644Z,114
2022-12-05T10:05:53.040Z,102
2022-12-05T10:07:36.434Z,95
2022-12-05T10:09:19.850Z,94
2022-12-05T10:11:03.249Z,91
2022-12-05T10:12:46.633Z,88
2022-12-05T10:14:30.022Z,87
2022-12-05T10:16:13.423Z,91
2022-12-05T10:21:22.660Z,271
2022-12-05T10:23:06.063Z,209
2022-12-05T10:24:49.450Z,224
2022-12-05T10:26:32.842Z,93
2022-12-05T10:28:16.430Z,102
2022-12-05T10:29:59.666Z,87
2022-12-05T10:31:43.035Z,96
2022-12-05T10:33:26.447Z,103
2022-12-05T10:38:35.713Z,122
2022-12-05T10:40:19.084Z,139
2022-12-05T10:42:02.463Z,151
2022-12-05T10:43:45.880Z,161
2022-12-05T10:45:29.261Z,164
2022-12-05T10:47:12.661Z,165
2022-12-05T10:48:56.068Z,172
2022-12-05T10:50:39.439Z,174
2022-12-05T10:55:48.717Z,208
2022-12-05T10:57:32.169Z,194
2022-12-05T10:59:15.602Z,187
2022-12-05T11:00:58.889Z,199
2022-12-05T11:02:42.830Z,218
2022-12-05T11:04:25.684Z,236
2022-12-05T11:06:09.060Z,254
2022-12-05T11:07:52.478Z,261
2022-12-05T11:11:18.944Z,320
2022-12-05T11:13:02.327Z,349
2022-12-05T11:14:45.738Z,378
2022-12-05T11:16:29.131Z,395
2022-12-05T11:18:12.536Z,405
2022-12-05T11:19:55.922Z,411
2022-12-05T11:21:39.340Z,411
2022-12-05T11:23:22.707Z,428
2022-12-05T11:28:31.957Z,393
2022-12-05T11:30:15.359Z,372
2022-12-05T11:31:58.749Z,358
2022-12-05T11:33:42.145Z,347
2022-12-05T11:35:25.541Z,351
2022-12-05T11:37:09.001Z,361
2022-12-05T11:38:52.337Z,363
2022-12-05T11:40:35.740Z,350
2022-12-05T11:44:02.212Z,320
2022-12-05T11:45:45.607Z,304
2022-12-05T11:47:29.006Z,303
2022-12-05T11:49:12.397Z,314
2022-12-05T11:50:55.784Z,330
2022-12-05T11:52:39.192Z,339
2022-12-05T11:54:22.590Z,342
2022-12-05T11:56:05.989Z,344
2022-12-05T12:01:15.232Z,354
2022-12-05T12:02:58.622Z,351
2022-12-05T12:04:42.025Z,346
2022-12-05T12:06:25.404Z,346
2022-12-05T12:08:08.801Z,346
2022-12-05T12:09:52.211Z,342
2022-12-05T12:11:35.608Z,335
2022-12-05T12:13:19.066Z,328
2022-12-05T12:16:45.493Z,311
2022-12-05T12:18:28.868Z,307
2022-12-05T12:20:12.309Z,305
2022-12-05T12:21:55.670Z,306
2022-12-05T12:23:39.056Z,311
2022-12-05T12:25:22.443Z,316
2022-12-05T12:27:05.851Z,320
2022-12-05T12:28:49.242Z,326
2022-12-05T12:33:58.496Z,336
2022-12-05T12:35:41.878Z,332
2022-12-05T12:37:25.279Z,327
2022-12-05T12:39:08.672Z,318
2022-12-05T12:40:52.094Z,319
2022-12-05T12:42:35.482Z,316
2022-12-05T12:44:18.855Z,296
2022-12-05T12:46:02.262Z,271
2022-12-05T12:51:11.532Z,201
2022-12-05T12:52:54.906Z,174
2022-12-05T12:54:38.297Z,169
2022-12-05T12:56:21.688Z,160
2022-12-05T12:58:05.108Z,164
2022-12-05T12:59:48.481Z,163
2022-12-05T13:01:32.122Z,153
2022-12-05T13:03:15.400Z,147
2022-12-05T13:04:58.662Z,157
2022-12-05T13:06:42.381Z,177
2022-12-05T13:08:25.769Z,177
2022-12-05T13:10:09.167Z,180
2022-12-05T13:11:52.564Z,188
2022-12-05T13:13:35.966Z,191
2022-12-05T13:15:19.365Z,200
2022-12-05T13:17:02.739Z,202
2022-12-05T13:18:46.137Z,196
2022-12-05T13:25:38.788Z,139
2022-12-05T13:27:22.179Z,137
2022-12-05T13:29:05.581Z,134
2022-12-05T13:30:48.968Z,124
2022-12-05T13:32:32.372Z,113
2022-12-05T13:34:15.772Z,110
2022-12-05T13:35:59.155Z,102
2022-12-05T13:41:08.406Z,114
2022-12-05T13:42:51.789Z,120
2022-12-05T13:44:35.206Z,126
2022-12-05T13:46:18.590Z,137
2022-12-05T13:48:02.040Z,138
2022-12-05T13:49:45.375Z,126
2022-12-05T13:51:28.768Z,111
2022-12-05T13:53:12.184Z,99
2022-12-05T13:54:55.584Z,86
2022-12-05T13:56:39.273Z,77
2022-12-05T13:58:22.656Z,73
2022-12-05T14:00:06.087Z,75
2022-12-05T14:01:49.482Z,74
2022-12-05T14:03:32.865Z,68
2022-12-05T14:05:16.258Z,65
2022-12-05T14:06:59.663Z,61
2022-12-05T14:08:43.068Z,55
2022-12-05T14:13:52.282Z,52
2022-12-05T14:15:35.692Z,45
2022-12-05T14:17:19.075Z,270
2022-12-05T14:19:02.525Z,212
2022-12-05T14:20:45.889Z,264
2022-12-05T14:22:29.361Z,280
2022-12-05T14:24:12.725Z,60
2022-12-05T14:25:56.065Z,63
2022-12-05T14:29:22.555Z,64
2022-12-05T14:31:05.954Z,64
2022-12-05T14:32:49.337Z,61
2022-12-05T14:34:32.749Z,60
2022-12-05T14:36:16.124Z,60
2022-12-05T14:37:59.536Z,60
2022-12-05T14:39:42.901Z,55
2022-12-05T14:41:26.325Z,50
2022-12-05T14:43:10.013Z,45
2022-12-05T14:44:53.449Z,41
2022-12-05T14:46:36.817Z,38
2022-12-05T14:48:20.242Z,37
2022-12-05T14:50:03.615Z,37
2022-12-05T14:51:47.005Z,37
2022-12-05T14:53:30.453Z,36
2022-12-05T14:55:13.803Z,37
2022-12-05T15:00:23.045Z,41
2022-12-05T15:02:06.466Z,39
2022-12-05T15:03:49.830Z,39
2022-12-05T15:05:33.229Z,38
2022-12-05T15:07:16.621Z,42
2022-12-05T15:09:00.019Z,45
2022-12-05T15:10:43.404Z,47
2022-12-05T15:12:26.792Z,46
2022-12-05T15:15:53.275Z,38
2022-12-05T15:17:36.667Z,34
2022-12-05T15:19:20.071Z,31
2022-12-05T15:21:03.477Z,25
2022-12-05T15:22:46.910Z,25
2022-12-05T15:24:30.256Z,22
2022-12-05T15:26:13.661Z,15
2022-12-05T15:27:57.116Z,8
2022-12-05T15:31:23.531Z,8
2022-12-05T15:33:06.910Z,8
2022-12-05T15:34:50.300Z,8
2022-12-05T15:36:33.734Z,7
2022-12-05T15:38:17.109Z,6
2022-12-05T15:40:00.521Z,6
2022-12-05T15:41:43.902Z,4
2022-12-05T15:43:27.316Z,4
2022-12-05T15:46:53.781Z,3
2022-12-05T15:48:37.171Z,2
2022-12-05T15:50:20.558Z,8
2022-12-05T15:52:03.982Z,7
2022-12-05T15:53:47.350Z,7
2022-12-05T15:55:30.761Z,7
2022-12-05T15:57:14.146Z,7
2022-12-05T15:58:57.556Z,8
2022-12-05T16:02:24.023Z,9
2022-12-05T16:04:07.419Z,8
2022-12-05T16:05:50.802Z,8
2022-12-05T16:07:34.241Z,8
2022-12-05T16:09:17.604Z,8
2022-12-05T16:11:00.999Z,8
2022-12-05T16:12:44.391Z,8
2022-12-05T16:14:27.799Z,8
2022-12-05T16:17:54.351Z,9
2022-12-05T16:19:37.658Z,7
2022-12-05T16:21:21.116Z,9
2022-12-05T16:23:04.505Z,7
2022-12-05T16:24:47.855Z,5
2022-12-05T16:26:31.246Z,9
2022-12-05T16:28:14.635Z,11
2022-12-05T16:29:58.031Z,8
2022-12-05T16:33:24.511Z,6
2022-12-05T16:35:07.916Z,8
2022-12-05T16:36:51.310Z,8
2022-12-05T16:38:34.712Z,7
2022-12-05T16:40:18.098Z,8
2022-12-05T16:42:01.496Z,9
2022-12-05T16:43:44.930Z,8
2022-12-05T16:45:28.293Z,9
2022-12-05T16:48:54.763Z,9
2022-12-05T16:50:38.166Z,8
2022-12-05T16:52:21.550Z,9
2022-12-05T16:54:04.943Z,8
2022-12-05T16:55:48.393Z,9
2022-12-05T16:57:31.744Z,9
2022-12-05T16:59:15.145Z,8
2022-12-05T17:00:58.544Z,9
2022-12-05T17:04:25.029Z,9
2022-12-05T17:07:51.795Z,9
2022-12-05T17:09:35.254Z,10
2022-12-05T17:11:18.613Z,9
2022-12-05T17:13:01.983Z,9
2022-12-05T17:14:45.400Z,9
2022-12-05T17:16:28.772Z,9
2022-12-05T17:26:48.204Z,8
2022-12-05T17:28:31.600Z,9
2022-12-05T17:30:15.007Z,9
2022-12-05T17:31:58.405Z,10
2022-12-05T17:33:41.825Z,9
2022-12-05T17:35:25.201Z,10
2022-12-05T17:37:08.887Z,9
2022-12-05T17:38:52.298Z,9
2022-12-05T17:40:35.710Z,8
2022-12-05T17:42:19.088Z,9
2022-12-05T17:44:02.489Z,9
2022-12-05T17:45:46.024Z,9
2022-12-05T17:47:29.477Z,9
2022-12-05T17:49:12.837Z,9
2022-12-05T17:52:39.196Z,9
2022-12-05T17:54:22.559Z,8
2022-12-05T17:56:06.094Z,9
2022-12-05T17:57:49.443Z,9
2022-12-05T17:59:32.906Z,9
2022-12-05T18:01:16.343Z,8
2022-12-05T18:02:59.658Z,9
2022-12-05T18:04:42.924Z,8
2022-12-05T18:08:09.411Z,10
2022-12-05T18:09:52.794Z,9
2022-12-05T18:11:36.243Z,9
2022-12-05T18:13:19.783Z,8
2022-12-05T18:15:03.147Z,9
2022-12-05T18:16:46.391Z,8
2022-12-05T18:18:29.774Z,10
2022-12-05T18:20:13.308Z,9
2022-12-05T18:25:22.608Z,8
2022-12-05T18:27:06.001Z,8
2022-12-05T18:28:49.345Z,9
2022-12-05T18:30:32.601Z,8
2022-12-05T18:32:16.177Z,9
2022-12-05T18:33:59.448Z,7
2022-12-05T18:35:42.783Z,8
2022-12-05T18:37:26.181Z,9
2022-12-05T18:40:52.665Z,13
2022-12-05T18:42:36.051Z,15
2022-12-05T18:44:19.568Z,15
2022-12-05T18:46:02.917Z,14
2022-12-05T18:47:46.326Z,9
2022-12-05T18:49:29.753Z,8
2022-12-05T18:51:13.131Z,9
2022-12-05T18:52:56.422Z,8
2022-12-05T18:58:05.854Z,51
2022-12-05T18:59:49.197Z,51
2022-12-05T19:01:32.683Z,8
2022-12-05T19:03:15.953Z,7
2022-12-05T19:04:59.268Z,8
2022-12-05T19:06:42.654Z,6
2022-12-05T19:08:26.099Z,5
2022-12-05T19:10:09.562Z,6
2022-12-05T19:15:18.755Z,8
2022-12-05T19:17:02.272Z,9
2022-12-05T19:18:45.615Z,8
2022-12-05T19:20:29.077Z,9
2022-12-05T19:22:12.378Z,7
2022-12-05T19:23:55.759Z,9
2022-12-05T19:25:39.088Z,9
2022-12-05T19:27:22.490Z,9
2022-12-05T19:29:05.877Z,8
2022-12-05T19:32:32.364Z,8
2022-12-05T19:34:15.760Z,9
2022-12-05T19:35:59.147Z,9
2022-12-05T19:37:42.545Z,9
2022-12-05T19:39:25.931Z,8
2022-12-05T19:41:09.334Z,9
2022-12-05T19:42:52.735Z,9
2022-12-05T19:44:36.117Z,8
2022-12-05T19:49:45.380Z,9
2022-12-05T19:51:28.774Z,8
2022-12-05T19:53:12.162Z,9
2022-12-05T19:54:55.571Z,9
2022-12-05T19:56:38.951Z,8
2022-12-05T19:58:22.355Z,9
2022-12-05T20:00:05.748Z,9
2022-12-05T20:01:49.159Z,9
2022-12-05T20:06:59.014Z,9
2022-12-05T20:08:42.410Z,9
2022-12-05T20:10:25.833Z,8
2022-12-05T20:12:09.201Z,8
2022-12-05T20:13:52.604Z,8
2022-12-05T20:15:35.993Z,9
2022-12-05T20:17:19.395Z,8
2022-12-05T20:22:28.643Z,9
2022-12-05T20:24:12.050Z,9
2022-12-05T20:25:55.433Z,9
2022-12-05T20:27:38.831Z,8
2022-12-05T20:29:22.234Z,9
2022-12-05T20:31:05.630Z,8
2022-12-05T20:32:49.019Z,9
2022-12-05T20:34:32.428Z,9
2022-12-05T20:37:58.910Z,9
2022-12-05T20:39:42.298Z,8
2022-12-05T20:41:25.678Z,8
2022-12-05T20:43:09.082Z,9
2022-12-05T20:44:52.476Z,9
2022-12-05T20:46:35.879Z,8
2022-12-05T20:48:19.275Z,9
2022-12-05T20:50:02.674Z,8
2022-12-05T20:55:11.915Z,8
2022-12-05T20:56:55.298Z,9
2022-12-05T20:58:38.720Z,9
2022-12-05T21:00:22.092Z,9
2022-12-05T21:02:05.497Z,9
2022-12-05T21:03:48.937Z,8
2022-12-05T21:05:32.298Z,9
2022-12-05T21:07:15.769Z,9
2022-12-05T21:10:42.157Z,9
2022-12-05T21:12:25.564Z,8
2022-12-05T21:14:08.977Z,8
2022-12-05T21:15:52.402Z,9
2022-12-05T21:17:35.757Z,8
2022-12-05T21:19:19.156Z,9
2022-12-05T21:21:02.530Z,9
2022-12-05T21:22:45.959Z,9
2022-12-05T21:27:55.175Z,9
2022-12-05T21:29:38.575Z,8
2022-12-05T21:31:21.974Z,9
2022-12-05T21:33:05.367Z,8
2022-12-05T21:34:48.773Z,9
2022-12-05T21:36:32.161Z,7
2022-12-05T21:38:15.557Z,10
2022-12-05T21:39:58.961Z,8
2022-12-05T21:45:08.190Z,9
2022-12-05T21:46:51.600Z,9
2022-12-05T21:48:34.988Z,9
2022-12-05T21:50:18.384Z,9
2022-12-05T21:52:01.782Z,9
2022-12-05T21:53:45.179Z,8
2022-12-05T21:55:28.580Z,9
2022-12-05T21:57:11.975Z,9
2022-12-05T22:02:21.218Z,9
2022-12-05T22:04:04.636Z,8
2022-12-05T22:05:48.014Z,8
2022-12-05T22:07:31.539Z,9
2022-12-05T22:09:14.800Z,9
2022-12-05T22:10:58.199Z,9
2022-12-05T22:12:41.604Z,9
2022-12-05T22:14:24.987Z,9
2022-12-05T22:16:08.379Z,8
2022-12-05T22:17:52.080Z,8
2022-12-05T22:19:35.538Z,8
2022-12-05T22:21:18.894Z,587
2022-12-05T22:23:02.272Z,578
2022-12-05T22:24:45.675Z,7
2022-12-05T22:26:29.077Z,8
2022-12-05T22:28:12.480Z,8
2022-12-05T22:29:55.873Z,8
2022-12-05T22:31:39.260Z,2
2022-12-05T22:35:05.743Z,2
2022-12-05T22:36:49.140Z,2
2022-12-05T22:38:32.536Z,2
2022-12-05T22:40:15.942Z,2
2022-12-05T22:41:59.317Z,2
2022-12-05T22:43:42.721Z,2
2022-12-05T22:45:26.152Z,1
2022-12-05T22:47:09.519Z,2
2022-12-05T22:48:52.927Z,2
2022-12-05T22:50:36.627Z,2
2022-12-05T22:52:20.012Z,2
2022-12-05T22:54:03.420Z,1
2022-12-05T22:55:46.796Z,1
2022-12-05T22:57:30.198Z,2
2022-12-05T22:59:13.608Z,2
2022-12-05T23:00:56.996Z,3
2022-12-05T23:02:40.404Z,2
2022-12-05T23:04:23.790Z,2
2022-12-05T23:07:50.278Z,2
2022-12-05T23:09:33.662Z,2
2022-12-05T23:11:17.172Z,2
2022-12-05T23:13:00.450Z,2
2022-12-05T23:14:43.910Z,2
2022-12-05T23:16:27.486Z,2
2022-12-05T23:18:10.655Z,2
2022-12-05T23:19:54.049Z,2
2022-12-05T23:21:37.452Z,2
2022-12-05T23:26:46.683Z,2
2022-12-05T23:28:30.208Z,2
2022-12-05T23:30:13.464Z,2
2022-12-05T23:31:56.882Z,1
2022-12-05T23:33:40.264Z,2
2022-12-05T23:35:23.697Z,2
2022-12-05T23:37:07.067Z,2
2022-12-05T23:38:50.988Z,2
2022-12-05T23:40:33.856Z,2
2022-12-05T23:47:25.866Z,2
2022-12-05T23:49:09.254Z,2
2022-12-05T23:50:52.662Z,2
2022-12-05T23:52:36.051Z,2
2022-12-05T23:54:19.444Z,1
2022-12-05T23:56:02.842Z,1
2022-12-05T23:57:46.284Z,1
2022-12-05T23:59:29.657Z,2
